Sopot, Poland
Current Conditions -  °F | °C
As of 10:30 PM on Thursday 20 Nov 2014 (Local Time) from EPGD Reporting Station
Haze Haze  
Wind Chill: 36°   Ceiling: 400
Heat Index: 36°   Visibility: 1.8mi
Dew Point: 36°   Wind: 2mph
Humidity: 100%   Direction: 120°ESE
Pressure: 30.3"   Gusts: NA
Location:  54.44°N, 18.56°E
Report Text: EPGD 202030Z 12002KT 3000 BR BKN004 02/02 Q1026
Loading
Personal Weather Stations






























Interactive Weather Map New forecast layout! Learn more

10-Day Weather Forecast

Advertisements
Track Severe Weather on mobile